Time;durP1;ratioP1;P1;durP2;ratioP2;P2;SDS_P1;SDS_P2;PMS_P1;PMS_P2;Temp;Humidity;BMP_temperature;BMP_pressure;BME280_temperature;BME280_humidity;BME280_pressure;Samples;Min_cycle;Max_cycle;Signal;HPM_P1;HPM_P2
2024/01/11 00:02:21;;;;;;;1.00;1.00;;;-3.90;1.00;;;;;;5056602;28;20167;-87
2024/01/11 00:04:48;;;;;;;0.90;0.90;;;-3.90;1.00;;;;;;5057379;28;20177;-87
2024/01/11 00:07:13;;;;;;;1.00;1.00;;;-3.90;1.00;;;;;;5038265;28;20195;-88
2024/01/11 00:09:42;;;;;;;1.00;1.00;;;-4.00;1.00;;;;;;5058310;28;20747;-87
2024/01/11 00:12:09;;;;;;;1.03;1.03;;;-4.00;99.90;;;;;;5058374;28;20199;-88
2024/01/11 00:14:35;;;;;;;1.00;1.00;;;-4.10;1.00;;;;;;5057254;28;20179;-87
2024/01/11 00:17:02;;;;;;;1.00;1.00;;;-4.00;1.00;;;;;;5057226;28;20218;-88
2024/01/11 00:19:29;;;;;;;1.00;1.00;;;-4.10;1.00;;;;;;5057287;28;20656;-88
2024/01/11 00:21:54;;;;;;;1.00;1.00;;;-4.10;1.00;;;;;;5056957;28;20175;-89
2024/01/11 00:24:20;;;;;;;1.00;1.00;;;-4.10;99.90;;;;;;5057494;28;20675;-88
2024/01/11 00:26:45;;;;;;;1.00;1.00;;;-4.20;1.00;;;;;;5039511;28;20428;-88
2024/01/11 00:29:11;;;;;;;1.00;1.00;;;-4.20;1.00;;;;;;5057844;28;20248;-88
2024/01/11 00:31:38;;;;;;;1.00;1.00;;;-4.20;99.90;;;;;;5058125;28;20206;-88
2024/01/11 00:34:04;;;;;;;1.00;1.00;;;-4.20;1.00;;;;;;5057670;28;20182;-88
2024/01/11 00:36:29;;;;;;;0.93;0.93;;;-4.20;1.00;;;;;;5039080;28;20191;-88
2024/01/11 00:38:55;;;;;;;0.90;0.90;;;-4.20;1.00;;;;;;5058026;28;20171;-88
2024/01/11 00:41:21;;;;;;;1.00;1.00;;;-4.20;99.90;;;;;;5058209;28;20286;-87
2024/01/11 00:43:46;;;;;;;1.00;1.00;;;-4.30;99.90;;;;;;5057954;28;20186;-88
2024/01/11 00:46:12;;;;;;;1.00;1.00;;;-4.30;1.00;;;;;;5058069;28;20222;-88
2024/01/11 00:48:37;;;;;;;1.00;1.00;;;-4.20;1.00;;;;;;5059244;28;20261;-88
2024/01/11 00:51:07;;;;;;;0.90;0.90;;;-4.30;1.00;;;;;;5059132;28;20183;-88
2024/01/11 00:53:33;;;;;;;1.00;1.00;;;-4.20;1.00;;;;;;5062049;28;20167;-89
2024/01/11 00:55:59;;;;;;;1.07;1.07;;;-4.30;1.00;;;;;;5078331;28;20217;-88
2024/01/11 00:58:25;;;;;;;0.90;0.90;;;-4.30;1.00;;;;;;5079574;28;20176;-89
2024/01/11 01:00:52;;;;;;;1.00;1.00;;;-4.30;1.00;;;;;;5079613;28;20178;-88
2024/01/11 01:03:21;;;;;;;1.00;1.00;;;-4.30;1.00;;;;;;5073890;28;20167;-87
2024/01/11 01:05:47;;;;;;;0.90;0.90;;;-4.30;1.00;;;;;;5057151;28;20179;-87
2024/01/11 01:08:13;;;;;;;0.90;0.90;;;-4.30;1.00;;;;;;5057430;28;20175;-87
2024/01/11 01:10:38;;;;;;;0.90;0.90;;;-4.30;1.00;;;;;;5056658;28;20229;-88
2024/01/11 01:13:04;;;;;;;1.00;1.00;;;-4.30;1.00;;;;;;5056343;28;20297;-88
2024/01/11 01:15:30;;;;;;;0.90;0.90;;;-4.30;1.00;;;;;;5056422;28;20294;-88
2024/01/11 01:17:55;;;;;;;1.00;1.00;;;-4.30;99.90;;;;;;5056475;28;20741;-88
2024/01/11 01:20:21;;;;;;;0.90;0.90;;;-4.30;99.90;;;;;;5056936;28;20309;-87
2024/01/11 01:22:47;;;;;;;1.00;1.00;;;-4.30;99.90;;;;;;5054958;28;20206;-87
2024/01/11 01:25:13;;;;;;;1.00;1.00;;;-4.40;1.00;;;;;;5064562;28;20163;-88
2024/01/11 01:27:38;;;;;;;1.00;1.00;;;-4.40;1.00;;;;;;5073994;28;20223;-88
2024/01/11 01:30:05;;;;;;;1.00;1.00;;;-4.40;1.00;;;;;;5056712;28;20205;-87
2024/01/11 01:32:30;;;;;;;1.00;1.00;;;-4.40;99.90;;;;;;5055258;28;20203;-88
2024/01/11 01:34:56;;;;;;;1.00;1.00;;;-4.40;1.00;;;;;;5055369;28;20175;-88
2024/01/11 01:37:22;;;;;;;0.90;0.90;;;-4.40;1.00;;;;;;5054642;28;20203;-87
2024/01/11 01:39:47;;;;;;;0.90;0.90;;;-4.40;1.00;;;;;;5055137;28;20239;-87
2024/01/11 01:42:13;;;;;;;1.00;1.00;;;-4.40;99.90;;;;;;5055598;28;20195;-87
2024/01/11 01:44:40;;;;;;;1.00;1.00;;;-4.50;99.90;;;;;;5055036;28;20701;-87
2024/01/11 01:47:07;;;;;;;1.00;1.00;;;-4.50;1.00;;;;;;5054351;28;20191;-87
2024/01/11 01:49:33;;;;;;;1.00;1.00;;;-4.50;99.90;;;;;;5054978;28;20663;-87
2024/01/11 01:51:59;;;;;;;0.90;0.90;;;-4.60;99.90;;;;;;5054922;28;20294;-87
2024/01/11 01:54:25;;;;;;;0.90;0.90;;;-4.60;99.90;;;;;;5054846;28;20199;-88
2024/01/11 01:56:53;;;;;;;1.00;1.00;;;-4.60;99.90;;;;;;5037323;28;20620;-87
2024/01/11 01:59:20;;;;;;;1.10;1.10;;;-4.60;1.00;;;;;;5055258;28;20180;-87
2024/01/11 02:01:46;;;;;;;0.90;0.90;;;-4.60;1.00;;;;;;5055804;28;20178;-87
2024/01/11 02:04:11;;;;;;;0.90;0.90;;;-4.60;1.00;;;;;;5054992;28;20548;-88
2024/01/11 02:06:37;;;;;;;1.00;1.00;;;-4.60;1.00;;;;;;5054397;28;20268;-88
2024/01/11 02:09:04;;;;;;;1.03;1.03;;;-4.60;1.00;;;;;;5036557;28;20178;-88
2024/01/11 02:11:30;;;;;;;1.00;1.00;;;-4.50;1.00;;;;;;5054707;28;20703;-88
2024/01/11 02:13:57;;;;;;;0.90;0.90;;;-4.50;1.00;;;;;;5054798;28;20229;-87
2024/01/11 02:16:23;;;;;;;0.90;0.90;;;-4.50;1.00;;;;;;5055138;28;20217;-87
2024/01/11 02:18:49;;;;;;;0.90;0.90;;;-4.50;1.00;;;;;;5036059;28;20716;-87
2024/01/11 02:21:17;;;;;;;0.90;0.90;;;-4.50;1.00;;;;;;5054526;28;20179;-87
2024/01/11 02:24:04;;;;;;;0.90;0.90;;;-4.60;99.90;;;;;;5054268;28;20186;-87
2024/01/11 02:26:29;;;;;;;1.00;1.00;;;-4.60;1.00;;;;;;5077139;28;20258;-88
2024/01/11 02:28:55;;;;;;;0.90;0.90;;;-4.60;1.00;;;;;;5077538;28;20174;-88
2024/01/11 02:31:21;;;;;;;1.00;1.00;;;-4.70;1.00;;;;;;5077278;28;20207;-87
2024/01/11 02:33:47;;;;;;;1.00;1.00;;;-4.80;99.90;;;;;;5069665;28;20187;-88
2024/01/11 02:36:13;;;;;;;0.90;0.90;;;-4.80;1.00;;;;;;5058622;28;20199;-88
2024/01/11 02:38:42;;;;;;;0.90;0.90;;;-4.80;1.00;;;;;;5059213;28;20179;-87
2024/01/11 02:41:08;;;;;;;0.90;0.90;;;-4.80;1.00;;;;;;5040811;28;20202;-88
2024/01/11 02:43:37;;;;;;;0.80;0.80;;;-4.80;1.00;;;;;;5057252;28;20183;-87
2024/01/11 02:46:03;;;;;;;0.90;0.90;;;-4.80;99.90;;;;;;5057195;28;20203;-88
2024/01/11 02:48:29;;;;;;;0.90;0.90;;;-4.80;99.90;;;;;;5040759;28;20199;-87
2024/01/11 02:50:58;;;;;;;1.00;1.00;;;-4.90;99.90;;;;;;5057543;28;20182;-87
2024/01/11 02:53:24;;;;;;;0.90;0.90;;;-4.80;99.90;;;;;;5057350;28;20178;-88
2024/01/11 02:55:50;;;;;;;0.90;0.90;;;-4.80;1.00;;;;;;5057052;28;20638;-88
2024/01/11 02:58:16;;;;;;;1.00;1.00;;;-4.80;1.00;;;;;;5057457;28;20178;-87
2024/01/11 03:00:42;;;;;;;0.90;0.90;;;-4.80;1.00;;;;;;5061249;28;20183;-87
2024/01/11 03:03:07;;;;;;;0.93;0.93;;;-4.80;99.90;;;;;;5073184;28;20168;-88
2024/01/11 03:05:33;;;;;;;1.00;1.00;;;-4.80;99.90;;;;;;5077506;28;20187;-89
2024/01/11 03:07:58;;;;;;;1.00;1.00;;;-4.80;99.90;;;;;;5077548;28;20183;-88
2024/01/11 03:10:24;;;;;;;1.00;1.00;;;-4.80;99.90;;;;;;5077364;28;20159;-88
2024/01/11 03:12:50;;;;;;;0.90;0.90;;;-4.80;99.90;;;;;;5057733;28;20202;-87
2024/01/11 03:15:16;;;;;;;1.00;1.00;;;-4.80;33.90;;;;;;5053139;28;20262;-87
2024/01/11 03:17:41;;;;;;;0.90;0.90;;;-4.90;1.00;;;;;;5053564;28;20237;-87
2024/01/11 03:20:07;;;;;;;0.90;0.90;;;-4.90;1.00;;;;;;5053295;28;20178;-87
2024/01/11 03:22:33;;;;;;;0.90;0.90;;;-4.90;1.00;;;;;;5055559;28;20170;-88
2024/01/11 03:24:59;;;;;;;1.00;1.00;;;-4.90;1.00;;;;;;5056500;28;20561;-87
2024/01/11 03:27:24;;;;;;;1.00;1.00;;;-4.90;99.90;;;;;;5056033;28;20194;-87
2024/01/11 03:29:50;;;;;;;0.90;0.90;;;-5.00;99.90;;;;;;5057990;28;20192;-87
2024/01/11 03:32:16;;;;;;;1.00;1.00;;;-4.90;99.90;;;;;;5060997;28;20207;-88
2024/01/11 03:34:41;;;;;;;0.90;0.90;;;-4.90;72.70;;;;;;5063025;28;20174;-87
2024/01/11 03:37:07;;;;;;;0.90;0.90;;;-5.00;1.00;;;;;;5056682;28;20203;-87
2024/01/11 03:39:34;;;;;;;1.00;1.00;;;-5.00;1.00;;;;;;5057037;28;20201;-88
2024/01/11 03:41:59;;;;;;;1.00;1.00;;;-5.00;99.90;;;;;;5056297;28;20252;-87
2024/01/11 03:44:25;;;;;;;0.90;0.90;;;-5.00;36.50;;;;;;5056441;28;20171;-86
2024/01/11 03:46:51;;;;;;;1.07;1.07;;;-5.00;1.00;;;;;;5056616;28;20248;-86
2024/01/11 03:49:17;;;;;;;1.00;1.00;;;-5.10;99.90;;;;;;5022395;28;20179;-87
2024/01/11 03:51:42;;;;;;;1.00;1.00;;;-5.00;1.00;;;;;;5056645;28;20230;-87
2024/01/11 03:54:08;;;;;;;1.00;1.00;;;-5.10;1.00;;;;;;5057251;28;20175;-87
2024/01/11 03:56:36;;;;;;;1.00;1.00;;;-5.10;99.90;;;;;;5056442;28;20198;-87
2024/01/11 03:59:02;;;;;;;0.90;0.90;;;-5.10;1.00;;;;;;5056986;28;20191;-87
2024/01/11 04:01:28;;;;;;;0.90;0.90;;;-5.10;99.90;;;;;;5039626;28;20179;-87
2024/01/11 04:03:54;;;;;;;0.90;0.90;;;-5.20;46.70;;;;;;5057433;28;20175;-87
2024/01/11 04:06:21;;;;;;;1.00;1.00;;;-5.20;99.90;;;;;;5056664;28;20187;-87
2024/01/11 04:08:47;;;;;;;0.90;0.90;;;-5.20;1.00;;;;;;5057207;28;20175;-87
2024/01/11 04:11:12;;;;;;;0.90;0.90;;;-5.30;1.00;;;;;;5057644;28;20187;-88
2024/01/11 04:13:39;;;;;;;1.00;1.00;;;-5.30;99.90;;;;;;5077436;28;20191;-88
2024/01/11 04:16:06;;;;;;;0.87;0.87;;;-5.20;1.00;;;;;;5080640;28;20195;-88
2024/01/11 04:18:32;;;;;;;0.90;0.90;;;-5.30;1.00;;;;;;5080836;28;20202;-87
2024/01/11 04:20:57;;;;;;;1.00;1.00;;;-5.30;1.00;;;;;;5063462;28;20183;-88
2024/01/11 04:23:23;;;;;;;1.00;1.00;;;-5.30;1.00;;;;;;5080743;28;20163;-88
2024/01/11 04:25:50;;;;;;;1.00;1.00;;;-5.30;1.00;;;;;;5080145;28;20243;-89
2024/01/11 04:28:16;;;;;;;0.90;0.90;;;-5.30;1.00;;;;;;5080690;28;20166;-88
2024/01/11 04:30:42;;;;;;;1.00;1.00;;;-5.20;99.90;;;;;;5080422;28;20172;-88
2024/01/11 04:33:07;;;;;;;1.00;1.00;;;-5.30;99.90;;;;;;5080461;28;20209;-87
2024/01/11 04:35:33;;;;;;;1.00;1.00;;;-5.30;99.90;;;;;;5079627;28;20197;-87
2024/01/11 04:37:59;;;;;;;0.90;0.90;;;-5.30;37.90;;;;;;5079153;28;20179;-87
2024/01/11 04:40:24;;;;;;;1.10;1.10;;;-5.40;99.90;;;;;;5066278;28;20187;-87
2024/01/11 04:42:50;;;;;;;1.03;1.03;;;-5.30;99.90;;;;;;5080306;28;20164;-87
2024/01/11 04:45:15;;;;;;;0.93;0.93;;;-5.30;99.90;;;;;;5063332;28;20230;-88
2024/01/11 04:47:41;;;;;;;1.00;1.00;;;-5.40;99.90;;;;;;5079599;28;20199;-87
2024/01/11 04:50:07;;;;;;;0.90;0.90;;;-5.40;1.00;;;;;;5073589;28;20186;-88
2024/01/11 04:52:32;;;;;;;1.00;1.00;;;-5.40;1.00;;;;;;5072549;28;20790;-88
2024/01/11 04:54:58;;;;;;;1.00;1.00;;;-5.40;1.00;;;;;;5068550;28;20246;-88
2024/01/11 04:57:23;;;;;;;1.00;1.00;;;-5.40;1.00;;;;;;5059658;28;20274;-88
2024/01/11 04:59:49;;;;;;;0.97;0.97;;;-5.50;1.00;;;;;;5060093;28;20176;-88
2024/01/11 05:02:15;;;;;;;1.00;1.00;;;-5.50;99.90;;;;;;5059497;28;20239;-87
2024/01/11 05:04:40;;;;;;;0.90;0.90;;;-5.50;1.00;;;;;;5059212;28;20695;-88
2024/01/11 05:07:06;;;;;;;1.00;1.00;;;-5.40;1.00;;;;;;5059105;28;20187;-87
2024/01/11 05:09:31;;;;;;;0.90;0.90;;;-5.40;1.00;;;;;;5041660;28;20648;-88
2024/01/11 05:11:57;;;;;;;1.00;1.00;;;-5.40;1.00;;;;;;5060137;28;20314;-88
2024/01/11 05:14:22;;;;;;;1.00;1.00;;;-5.40;99.90;;;;;;5059422;28;20190;-87
2024/01/11 05:16:48;;;;;;;0.90;0.90;;;-5.40;99.90;;;;;;5058880;28;20195;-88
2024/01/11 05:19:14;;;;;;;1.00;1.00;;;-5.50;99.90;;;;;;5059191;28;20171;-88
2024/01/11 05:21:39;;;;;;;0.90;0.90;;;-5.50;99.90;;;;;;5058499;28;20519;-88
2024/01/11 05:24:05;;;;;;;0.90;0.90;;;-5.50;1.00;;;;;;5058845;28;20229;-88
2024/01/11 05:26:31;;;;;;;0.90;0.90;;;-5.50;99.90;;;;;;5060400;28;20202;-88
2024/01/11 05:28:57;;;;;;;0.90;0.90;;;-5.50;1.00;;;;;;5060133;28;20179;-88
2024/01/11 05:31:22;;;;;;;1.00;1.00;;;-4.60;1.00;;;;;;5058731;28;20231;-88
2024/01/11 05:33:48;;;;;;;0.87;0.87;;;-5.40;1.00;;;;;;5060010;28;20163;-89
2024/01/11 05:36:13;;;;;;;1.00;1.00;;;-5.40;99.90;;;;;;5059413;28;20195;-88
2024/01/11 05:38:40;;;;;;;0.80;0.80;;;-5.50;99.90;;;;;;5060036;28;20580;-88
2024/01/11 05:41:05;;;;;;;0.90;0.90;;;-5.50;1.00;;;;;;5058552;28;20262;-88
2024/01/11 05:43:31;;;;;;;0.80;0.80;;;-5.50;99.90;;;;;;5058690;28;20207;-87
2024/01/11 05:45:56;;;;;;;0.90;0.90;;;-5.40;99.90;;;;;;5057522;28;20190;-87
2024/01/11 05:48:22;;;;;;;1.10;1.10;;;-5.50;1.00;;;;;;5058237;28;20171;-87
2024/01/11 05:50:48;;;;;;;1.00;1.00;;;-5.50;1.00;;;;;;5057236;28;20220;-87
2024/01/11 05:53:14;;;;;;;1.00;1.00;;;-5.40;1.00;;;;;;5039317;28;20203;-88
2024/01/11 05:55:39;;;;;;;0.90;0.90;;;-5.50;1.00;;;;;;5057389;28;20465;-88
2024/01/11 05:58:05;;;;;;;1.00;1.00;;;-5.50;1.00;;;;;;5057382;28;20819;-88
2024/01/11 06:00:31;;;;;;;1.00;1.00;;;-5.50;1.00;;;;;;5057268;28;20197;-88
2024/01/11 06:02:57;;;;;;;0.90;0.90;;;-5.50;1.00;;;;;;5058200;28;20174;-89
2024/01/11 06:05:22;;;;;;;0.90;0.90;;;-5.60;1.00;;;;;;5057356;28;20648;-88
2024/01/11 06:07:48;;;;;;;1.00;1.00;;;-5.50;1.00;;;;;;5057220;28;20269;-88
2024/01/11 06:10:14;;;;;;;0.93;0.93;;;-5.50;1.00;;;;;;5057297;28;20675;-88
2024/01/11 06:12:41;;;;;;;1.00;1.00;;;-5.50;1.00;;;;;;5038819;28;20241;-88
2024/01/11 06:15:07;;;;;;;1.00;1.00;;;-5.50;1.00;;;;;;5039691;28;20179;-88
2024/01/11 06:17:33;;;;;;;1.00;1.00;;;-5.50;1.00;;;;;;5056724;28;20221;-87
2024/01/11 06:19:58;;;;;;;0.90;0.90;;;-5.50;1.00;;;;;;5039801;28;20175;-86
2024/01/11 06:22:24;;;;;;;1.00;1.00;;;-5.60;99.90;;;;;;5057341;28;20175;-87
2024/01/11 06:24:49;;;;;;;1.00;1.00;;;-5.60;99.90;;;;;;5056771;28;20175;-87
2024/01/11 06:27:15;;;;;;;0.90;0.90;;;-5.60;1.00;;;;;;5056688;28;20606;-88
2024/01/11 06:29:40;;;;;;;0.90;0.90;;;-5.60;1.00;;;;;;5056864;28;20584;-88
2024/01/11 06:32:07;;;;;;;1.00;1.00;;;-5.60;99.90;;;;;;5057583;28;20221;-87
2024/01/11 06:34:35;;;;;;;0.90;0.90;;;-5.60;99.90;;;;;;5057192;28;20182;-88
2024/01/11 06:37:02;;;;;;;0.90;0.90;;;-5.70;1.00;;;;;;5040677;28;20210;-87
2024/01/11 06:39:28;;;;;;;0.97;0.97;;;-5.70;1.00;;;;;;5057770;28;20682;-86
2024/01/11 06:41:54;;;;;;;0.90;0.90;;;-5.70;99.90;;;;;;5057188;28;20191;-86
2024/01/11 06:44:19;;;;;;;0.90;0.90;;;-5.60;99.90;;;;;;5058044;28;20678;-87
2024/01/11 06:46:45;;;;;;;0.93;0.93;;;-5.60;1.00;;;;;;5038453;28;20290;-87
2024/01/11 06:49:11;;;;;;;1.00;1.00;;;-5.60;99.90;;;;;;5038781;28;20224;-88
2024/01/11 06:51:37;;;;;;;1.00;1.00;;;-5.60;1.00;;;;;;5056569;28;20696;-87
2024/01/11 06:54:02;;;;;;;0.90;0.90;;;-5.70;1.00;;;;;;5057146;28;20212;-87
2024/01/11 06:56:28;;;;;;;0.90;0.90;;;-5.70;99.90;;;;;;5037643;28;20199;-88
2024/01/11 06:58:55;;;;;;;1.00;1.00;;;-5.60;1.00;;;;;;5056489;28;20198;-86
2024/01/11 07:01:21;;;;;;;0.93;0.93;;;-5.60;1.00;;;;;;5056072;28;20175;-87
2024/01/11 07:03:46;;;;;;;1.00;1.00;;;-5.60;99.90;;;;;;5055868;28;20163;-87
2024/01/11 07:06:12;;;;;;;0.93;0.93;;;-5.60;1.00;;;;;;5055458;28;20199;-86
2024/01/11 07:08:38;;;;;;;1.03;1.03;;;-5.70;36.50;;;;;;5056733;28;20393;-85
2024/01/11 07:11:04;;;;;;;0.80;0.80;;;-5.70;39.10;;;;;;5038813;28;20301;-86
2024/01/11 07:13:31;;;;;;;0.97;0.97;;;-5.70;1.00;;;;;;5057758;28;20741;-87
2024/01/11 07:15:57;;;;;;;0.90;0.90;;;-5.70;1.00;;;;;;5059386;28;20207;-85
2024/01/11 07:18:24;;;;;;;1.00;1.00;;;-5.60;99.90;;;;;;5074765;28;20175;-85
2024/01/11 07:20:50;;;;;;;1.00;1.00;;;-5.60;82.10;;;;;;5072730;28;20289;-86
2024/01/11 07:23:16;;;;;;;1.00;1.00;;;-5.60;1.00;;;;;;5061255;28;20177;-86
2024/01/11 07:25:41;;;;;;;0.90;0.90;;;-5.50;1.00;;;;;;5057601;28;20262;-86
2024/01/11 07:28:07;;;;;;;1.00;1.00;;;-5.50;1.00;;;;;;5055056;28;20218;-85
2024/01/11 07:30:33;;;;;;;0.80;0.80;;;-5.50;1.00;;;;;;5038904;28;20257;-87
2024/01/11 07:32:58;;;;;;;0.90;0.90;;;-5.30;1.00;;;;;;5057270;28;20209;-87
2024/01/11 07:35:24;;;;;;;1.00;1.00;;;-5.30;99.90;;;;;;5058802;28;20255;-87
2024/01/11 07:37:50;;;;;;;1.10;1.10;;;-5.20;49.50;;;;;;5056832;28;20210;-85
2024/01/11 07:40:17;;;;;;;0.90;0.90;;;-5.00;99.90;;;;;;5057782;28;20191;-87
2024/01/11 07:42:43;;;;;;;0.93;0.93;;;-4.90;99.90;;;;;;5058292;28;20242;-87
2024/01/11 07:45:10;;;;;;;1.00;1.00;;;-4.60;1.00;;;;;;5062542;28;20203;-86
2024/01/11 07:47:39;;;;;;;0.93;0.93;;;-4.20;1.00;;;;;;5062693;28;20211;-87
2024/01/11 07:50:15;;;;;;;1.10;1.10;;;-3.80;1.00;;;;;;5063970;28;20184;-84
2024/01/11 07:52:41;;;;;;;0.90;0.90;;;-3.40;1.00;;;;;;5063082;28;20210;-86
2024/01/11 07:55:10;;;;;;;1.00;1.00;;;-2.90;1.00;;;;;;5067274;28;20438;-86
2024/01/11 07:57:37;;;;;;;0.90;0.90;;;-2.30;1.00;;;;;;5063763;28;20249;-87
2024/01/11 08:00:06;;;;;;;1.00;1.00;;;-2.20;17.30;;;;;;5067966;28;20176;-88
2024/01/11 08:02:33;;;;;;;0.83;0.83;;;-2.10;1.00;;;;;;5064625;28;20172;-87
2024/01/11 08:04:59;;;;;;;0.90;0.90;;;-1.90;1.00;;;;;;5062321;28;20281;-86
2024/01/11 08:07:25;;;;;;;0.90;0.90;;;-1.20;1.00;;;;;;5055870;28;20222;-86
2024/01/11 08:09:51;;;;;;;1.00;1.00;;;-0.60;1.00;;;;;;5056597;28;20186;-86
2024/01/11 08:12:17;;;;;;;0.93;0.93;;;0.20;1.00;;;;;;5057697;28;20211;-88
2024/01/11 08:14:43;;;;;;;1.00;1.00;;;0.70;1.00;;;;;;5058605;28;20183;-85
2024/01/11 08:17:08;;;;;;;0.80;0.80;;;1.20;1.00;;;;;;5056777;28;20248;-87
2024/01/11 08:19:35;;;;;;;0.97;0.97;;;1.70;1.00;;;;;;5058002;28;20572;-86
2024/01/11 08:22:01;;;;;;;0.90;0.90;;;2.30;1.00;;;;;;5057283;28;20183;-85
2024/01/11 08:24:26;;;;;;;0.80;0.80;;;2.60;1.00;;;;;;5056343;28;20182;-88
2024/01/11 08:26:52;;;;;;;0.80;0.80;;;2.60;1.00;;;;;;5056570;28;20209;-86
2024/01/11 08:29:19;;;;;;;0.90;0.90;;;2.70;1.00;;;;;;5057164;28;20174;-85
2024/01/11 08:31:45;;;;;;;0.80;0.80;;;3.10;1.00;;;;;;5040107;28;20582;-86
2024/01/11 08:34:11;;;;;;;0.80;0.80;;;3.70;1.00;;;;;;5058119;28;20175;-87
2024/01/11 08:36:38;;;;;;;0.80;0.80;;;4.50;1.00;;;;;;5041784;28;20202;-86
2024/01/11 08:39:05;;;;;;;0.70;0.70;;;4.50;1.00;;;;;;5060323;28;20661;-87
2024/01/11 08:41:31;;;;;;;0.70;0.70;;;4.60;1.00;;;;;;5061750;28;20198;-86
2024/01/11 08:43:57;;;;;;;0.80;0.80;;;4.70;1.00;;;;;;5057138;28;20179;-85
2024/01/11 08:46:25;;;;;;;0.80;0.80;;;4.90;1.00;;;;;;5076702;28;20187;-87
2024/01/11 08:48:52;;;;;;;0.80;0.80;;;4.90;1.00;;;;;;5075299;28;20187;-87
2024/01/11 08:51:18;;;;;;;0.70;0.70;;;5.00;1.00;;;;;;5071644;28;20172;-87
2024/01/11 08:53:44;;;;;;;0.80;0.80;;;5.30;1.00;;;;;;5073458;28;20179;-88
2024/01/11 08:56:09;;;;;;;0.70;0.70;;;5.90;1.00;;;;;;5066183;28;20221;-87
2024/01/11 08:58:36;;;;;;;0.77;0.77;;;6.30;1.00;;;;;;5058343;28;20664;-87
2024/01/11 09:01:02;;;;;;;0.70;0.70;;;6.60;1.00;;;;;;5056388;28;20182;-87
2024/01/11 09:03:28;;;;;;;0.60;0.60;;;6.80;1.00;;;;;;5058945;28;20179;-87
2024/01/11 09:05:56;;;;;;;0.70;0.70;;;6.50;1.00;;;;;;5059061;28;20332;-88
2024/01/11 09:08:23;;;;;;;0.50;0.50;;;6.70;1.00;;;;;;5059149;28;20175;-87
2024/01/11 09:10:50;;;;;;;0.50;0.50;;;7.20;1.00;;;;;;5057242;28;20270;-86
2024/01/11 09:13:15;;;;;;;0.50;0.50;;;7.60;1.00;;;;;;5056448;28;20227;-87
2024/01/11 09:15:41;;;;;;;0.50;0.50;;;7.90;1.00;;;;;;5056419;28;20163;-88
2024/01/11 09:18:07;;;;;;;0.40;0.40;;;8.00;1.00;;;;;;5054134;28;20167;-88
2024/01/11 09:20:33;;;;;;;0.50;0.50;;;8.40;1.00;;;;;;5054290;28;20167;-89
2024/01/11 09:23:02;;;;;;;0.50;0.50;;;8.90;1.00;;;;;;5054800;28;20172;-88
2024/01/11 09:25:27;;;;;;;0.40;0.40;;;9.60;1.00;;;;;;5055507;28;20269;-88
2024/01/11 09:27:53;;;;;;;0.40;0.40;;;10.00;1.00;;;;;;5055525;28;20699;-86
2024/01/11 09:30:18;;;;;;;0.43;0.43;;;9.50;1.00;;;;;;5062828;28;20163;-85
2024/01/11 09:32:44;;;;;;;0.40;0.40;;;9.90;1.00;;;;;;5059135;28;20214;-86
2024/01/11 09:35:10;;;;;;;0.60;0.60;;;9.90;1.00;;;;;;5058251;28;20635;-84
2024/01/11 09:37:36;;;;;;;0.40;0.40;;;9.80;1.00;;;;;;5055403;28;20187;-88
2024/01/11 09:40:02;;;;;;;0.40;0.40;;;10.10;1.00;;;;;;5054540;28;20656;-87
2024/01/11 09:42:29;;;;;;;0.50;0.50;;;10.40;1.00;;;;;;5054499;28;20167;-87
2024/01/11 09:44:56;;;;;;;0.40;0.40;;;10.60;1.00;;;;;;5056800;28;20190;-87
2024/01/11 09:47:24;;;;;;;0.50;0.50;;;11.10;1.00;;;;;;5058295;28;20227;-87
2024/01/11 09:49:51;;;;;;;0.40;0.40;;;11.00;1.00;;;;;;5058346;28;20622;-87
2024/01/11 09:52:20;;;;;;;0.43;0.43;;;11.00;1.00;;;;;;5057395;28;20203;-88
2024/01/11 09:54:45;;;;;;;0.50;0.50;;;10.80;1.00;;;;;;5036533;28;20221;-88
2024/01/11 09:57:11;;;;;;;0.50;0.50;;;10.70;1.00;;;;;;5036998;28;20680;-87
2024/01/11 09:59:37;;;;;;;0.50;0.50;;;10.60;1.00;;;;;;5055758;28;20179;-86
2024/01/11 10:02:03;;;;;;;0.50;0.50;;;10.70;1.00;;;;;;5053930;28;20325;-92
2024/01/11 10:04:29;;;;;;;0.40;0.40;;;10.30;1.00;;;;;;5054482;28;20551;-88
2024/01/11 10:06:56;;;;;;;0.40;0.40;;;10.30;1.00;;;;;;5035249;28;20187;-88
2024/01/11 10:09:22;;;;;;;0.43;0.43;;;10.30;1.00;;;;;;5053744;28;20175;-89
2024/01/11 10:11:49;;;;;;;0.50;0.50;;;10.20;1.00;;;;;;5052993;28;20681;-88
2024/01/11 10:14:14;;;;;;;0.60;0.60;;;10.60;1.00;;;;;;5053279;28;20179;-89
2024/01/11 10:16:43;;;;;;;0.40;0.40;;;10.80;1.00;;;;;;5036245;28;20199;-86
2024/01/11 10:19:10;;;;;;;0.50;0.50;;;10.90;1.00;;;;;;5057463;28;20183;-86
2024/01/11 10:21:39;;;;;;;0.50;0.50;;;11.40;1.00;;;;;;5054404;28;20194;-88
2024/01/11 10:24:04;;;;;;;0.40;0.40;;;11.70;1.00;;;;;;5053498;28;20176;-90
2024/01/11 10:26:30;;;;;;;0.50;0.50;;;12.00;1.00;;;;;;5052790;28;20195;-87
2024/01/11 10:28:59;;;;;;;0.40;0.40;;;12.40;1.00;;;;;;5053422;28;20210;-88
2024/01/11 10:31:28;;;;;;;0.43;0.43;;;12.70;1.00;;;;;;5052707;28;20175;-89
2024/01/11 10:33:54;;;;;;;0.40;0.40;;;12.40;1.00;;;;;;5035105;28;20706;-87
2024/01/11 10:36:20;;;;;;;0.50;0.50;;;12.70;1.00;;;;;;5053038;28;20194;-87
2024/01/11 10:38:48;;;;;;;0.40;0.40;;;13.10;1.00;;;;;;5045476;28;20645;-86
2024/01/11 10:41:18;;;;;;;0.40;0.40;;;12.80;1.00;;;;;;5048901;28;20281;-87
2024/01/11 10:43:44;;;;;;;0.50;0.50;;;12.60;1.00;;;;;;5053485;28;20652;-86
2024/01/11 10:46:12;;;;;;;0.40;0.40;;;12.40;1.00;;;;;;5049089;28;20199;-86
2024/01/11 10:48:39;;;;;;;0.40;0.40;;;12.40;1.00;;;;;;5056812;28;20194;-85
2024/01/11 10:51:09;;;;;;;0.40;0.40;;;12.20;1.00;;;;;;5055115;28;20305;-86
2024/01/11 10:53:47;;;;;;;0.50;0.50;;;12.20;1.00;;;;;;5055597;28;20207;-86
2024/01/11 10:56:14;;;;;;;0.50;0.50;;;12.10;1.00;;;;;;5055788;28;20281;-85
2024/01/11 10:58:41;;;;;;;0.60;0.60;;;11.70;1.00;;;;;;5052243;28;20167;-87
2024/01/11 11:01:08;;;;;;;0.60;0.60;;;11.00;1.00;;;;;;5054960;28;20175;-86
2024/01/11 11:03:35;;;;;;;0.50;0.50;;;10.40;1.00;;;;;;5035551;28;20210;-86
2024/01/11 11:06:03;;;;;;;0.50;0.50;;;10.30;1.00;;;;;;5043229;28;20210;-87
2024/01/11 11:08:29;;;;;;;0.50;0.50;;;10.00;1.00;;;;;;5052657;28;20547;-88
2024/01/11 11:10:59;;;;;;;0.50;0.50;;;10.10;1.00;;;;;;5052795;28;20178;-88
2024/01/11 11:13:25;;;;;;;0.43;0.43;;;10.50;1.00;;;;;;5053061;28;20213;-88
2024/01/11 11:15:52;;;;;;;0.57;0.57;;;10.90;1.00;;;;;;5076170;28;20166;-90
2024/01/11 11:18:18;;;;;;;0.60;0.60;;;10.80;1.00;;;;;;5060555;28;20191;-90
2024/01/11 11:20:45;;;;;;;0.40;0.40;;;10.40;1.00;;;;;;5077726;28;20190;-93
2024/01/11 11:23:13;;;;;;;0.40;0.40;;;10.30;1.00;;;;;;5078497;28;20151;-94
2024/01/11 11:25:42;;;;;;;0.50;0.50;;;10.40;1.00;;;;;;5072323;28;20183;-86
2024/01/11 11:28:08;;;;;;;0.50;0.50;;;10.80;1.00;;;;;;5059549;28;20175;-86
2024/01/11 11:30:38;;;;;;;0.50;0.50;;;11.20;1.00;;;;;;5057531;28;20170;-89
2024/01/11 11:33:41;;;;;;;0.40;0.40;;;11.10;1.00;;;;;;5035616;28;20241;-89
2024/01/11 11:36:12;;;;;;;0.40;0.40;;;11.40;1.00;;;;;;5054892;28;20202;-87
2024/01/11 11:38:38;;;;;;;0.50;0.50;;;11.80;1.00;;;;;;5053493;28;20176;-88
2024/01/11 11:41:04;;;;;;;0.60;0.60;;;11.70;1.00;;;;;;5055037;28;20214;-87
2024/01/11 11:43:31;;;;;;;0.53;0.53;;;11.70;1.00;;;;;;5055396;28;20229;-90
2024/01/11 11:45:57;;;;;;;0.40;0.40;;;11.20;1.00;;;;;;5059026;28;20191;-86
2024/01/11 11:48:29;;;;;;;0.40;0.40;;;10.60;1.00;;;;;;5057919;28;20233;-88
2024/01/11 11:51:17;;;;;;;0.40;0.40;;;10.00;1.00;;;;;;5058426;28;20237;-89
2024/01/11 11:53:44;;;;;;;0.60;0.60;;;9.00;1.00;;;;;;5042128;28;20205;-89
2024/01/11 11:56:11;;;;;;;0.67;0.67;;;8.50;1.00;;;;;;5058257;28;20199;-87
2024/01/11 11:58:39;;;;;;;0.67;0.67;;;8.20;1.00;;;;;;5059034;28;20244;-88
2024/01/11 12:01:04;;;;;;;0.60;0.60;;;7.90;1.00;;;;;;5063858;28;20175;-90
2024/01/11 12:03:38;;;;;;;0.70;0.70;;;7.80;1.00;;;;;;5080151;28;20182;-95
2024/01/11 12:06:05;;;;;;;0.80;0.80;;;7.90;1.00;;;;;;5080414;28;20187;-91
2024/01/11 12:08:31;;;;;;;0.77;0.77;;;7.70;1.00;;;;;;5080687;28;20177;-92
2024/01/11 12:10:57;;;;;;;0.80;0.80;;;7.50;1.00;;;;;;5080433;28;20187;-91
2024/01/11 12:13:23;;;;;;;0.70;0.70;;;7.40;1.00;;;;;;5065376;28;20596;-88
2024/01/11 12:15:49;;;;;;;0.70;0.70;;;7.30;1.00;;;;;;5062051;28;20559;-88
2024/01/11 12:18:14;;;;;;;0.80;0.80;;;7.40;1.00;;;;;;5061727;28;20179;-87
2024/01/11 12:20:40;;;;;;;0.80;0.80;;;7.70;1.00;;;;;;5060817;28;20183;-88
2024/01/11 12:23:06;;;;;;;0.60;0.60;;;7.80;1.00;;;;;;5062320;28;20198;-87
2024/01/11 12:25:32;;;;;;;0.70;0.70;;;7.70;1.00;;;;;;5062573;28;20259;-86
2024/01/11 12:27:57;;;;;;;0.80;0.80;;;7.50;1.00;;;;;;5061195;28;20195;-87
2024/01/11 12:30:25;;;;;;;0.63;0.63;;;7.80;1.00;;;;;;5061290;28;20186;-88
2024/01/11 12:32:51;;;;;;;0.83;0.83;;;7.40;1.00;;;;;;5061311;28;20676;-87
2024/01/11 12:35:17;;;;;;;0.70;0.70;;;7.50;1.00;;;;;;5060780;28;20259;-87
2024/01/11 12:38:11;;;;;;;0.80;0.80;;;7.50;1.00;;;;;;5059258;28;20213;-88
2024/01/11 12:40:37;;;;;;;0.67;0.67;;;7.50;1.00;;;;;;5060251;28;20182;-89
2024/01/11 12:43:04;;;;;;;0.80;0.80;;;7.60;1.00;;;;;;5059225;28;20230;-87
2024/01/11 12:45:32;;;;;;;0.73;0.73;;;7.50;1.00;;;;;;5058243;28;20175;-88
2024/01/11 12:48:02;;;;;;;0.70;0.70;;;7.30;1.00;;;;;;5056712;28;20245;-89
2024/01/11 12:50:28;;;;;;;0.60;0.60;;;7.30;1.00;;;;;;5043656;28;20698;-88
2024/01/11 12:53:20;;;;;;;0.70;0.70;;;7.80;1.00;;;;;;5077443;28;20273;-90
2024/01/11 12:55:49;;;;;;;0.70;0.70;;;8.30;1.00;;;;;;5078424;28;20183;-89